sensor_id;sensor_type;location;lat;lon;timestamp;temperature;humidity
70107;DHT22;57473;37.508;15.080;2023-04-01T00:01:02;15.80;54.10
70107;DHT22;57473;37.508;15.080;2023-04-01T00:03:30;15.80;53.90
70107;DHT22;57473;37.508;15.080;2023-04-01T00:05:58;15.80;53.90
70107;DHT22;57473;37.508;15.080;2023-04-01T00:08:27;15.80;54.00
70107;DHT22;57473;37.508;15.080;2023-04-01T00:10:54;15.80;54.10
70107;DHT22;57473;37.508;15.080;2023-04-01T00:13:23;15.90;54.20
70107;DHT22;57473;37.508;15.080;2023-04-01T00:15:53;15.90;54.20
70107;DHT22;57473;37.508;15.080;2023-04-01T00:18:23;15.90;54.10
70107;DHT22;57473;37.508;15.080;2023-04-01T00:20:51;15.90;54.10
70107;DHT22;57473;37.508;15.080;2023-04-01T00:23:19;15.90;54.00
70107;DHT22;57473;37.508;15.080;2023-04-01T00:25:47;15.90;53.80
70107;DHT22;57473;37.508;15.080;2023-04-01T00:28:19;15.90;53.70
70107;DHT22;57473;37.508;15.080;2023-04-01T00:30:47;15.90;53.10
70107;DHT22;57473;37.508;15.080;2023-04-01T00:33:15;16.00;52.90
70107;DHT22;57473;37.508;15.080;2023-04-01T00:35:43;16.00;52.90
70107;DHT22;57473;37.508;15.080;2023-04-01T00:38:11;15.90;52.90
70107;DHT22;57473;37.508;15.080;2023-04-01T00:40:44;15.90;53.00
70107;DHT22;57473;37.508;15.080;2023-04-01T00:43:19;15.80;53.10
70107;DHT22;57473;37.508;15.080;2023-04-01T00:45:48;15.70;53.40
70107;DHT22;57473;37.508;15.080;2023-04-01T00:48:43;15.70;53.50
70107;DHT22;57473;37.508;15.080;2023-04-01T00:51:17;15.60;53.70
70107;DHT22;57473;37.508;15.080;2023-04-01T00:53:48;15.60;53.70
70107;DHT22;57473;37.508;15.080;2023-04-01T00:56:30;15.60;53.90
70107;DHT22;57473;37.508;15.080;2023-04-01T00:59:02;15.60;54.20
70107;DHT22;57473;37.508;15.080;2023-04-01T01:01:31;15.60;54.40
70107;DHT22;57473;37.508;15.080;2023-04-01T01:03:59;15.60;54.70
70107;DHT22;57473;37.508;15.080;2023-04-01T01:06:46;15.60;54.90
70107;DHT22;57473;37.508;15.080;2023-04-01T01:09:47;15.50;55.00
70107;DHT22;57473;37.508;15.080;2023-04-01T01:12:21;15.60;55.00
70107;DHT22;57473;37.508;15.080;2023-04-01T01:32:07;15.50;55.10
70107;DHT22;57473;37.508;15.080;2023-04-01T01:37:31;15.40;55.80
70107;DHT22;57473;37.508;15.080;2023-04-01T01:40:04;15.30;56.00
70107;DHT22;57473;37.508;15.080;2023-04-01T01:42:37;15.30;56.20
70107;DHT22;57473;37.508;15.080;2023-04-01T01:45:06;15.30;56.20
70107;DHT22;57473;37.508;15.080;2023-04-01T01:47:35;15.30;56.30
70107;DHT22;57473;37.508;15.080;2023-04-01T01:50:05;15.30;56.20
70107;DHT22;57473;37.508;15.080;2023-04-01T01:52:34;15.30;56.30
70107;DHT22;57473;37.508;15.080;2023-04-01T01:55:03;15.30;56.90
70107;DHT22;57473;37.508;15.080;2023-04-01T01:57:44;15.30;57.30
70107;DHT22;57473;37.508;15.080;2023-04-01T02:00:16;15.30;57.90
70107;DHT22;57473;37.508;15.080;2023-04-01T02:02:46;15.30;58.40
70107;DHT22;57473;37.508;15.080;2023-04-01T02:05:17;15.30;58.80
70107;DHT22;57473;37.508;15.080;2023-04-01T02:07:50;15.30;59.20
70107;DHT22;57473;37.508;15.080;2023-04-01T02:10:23;15.30;59.50
70107;DHT22;57473;37.508;15.080;2023-04-01T02:12:55;15.30;59.60
70107;DHT22;57473;37.508;15.080;2023-04-01T02:15:25;15.30;59.60
70107;DHT22;57473;37.508;15.080;2023-04-01T02:17:58;15.30;59.90
70107;DHT22;57473;37.508;15.080;2023-04-01T02:20:28;15.20;60.20
70107;DHT22;57473;37.508;15.080;2023-04-01T02:22:57;15.20;60.50
70107;DHT22;57473;37.508;15.080;2023-04-01T02:25:30;15.10;60.80
70107;DHT22;57473;37.508;15.080;2023-04-01T02:28:04;15.10;61.00
70107;DHT22;57473;37.508;15.080;2023-04-01T02:30:35;15.10;61.00
70107;DHT22;57473;37.508;15.080;2023-04-01T02:33:04;15.10;61.10
70107;DHT22;57473;37.508;15.080;2023-04-01T02:35:34;15.10;61.10
70107;DHT22;57473;37.508;15.080;2023-04-01T02:38:03;15.00;61.20
70107;DHT22;57473;37.508;15.080;2023-04-01T02:40:41;15.00;61.50
70107;DHT22;57473;37.508;15.080;2023-04-01T02:43:08;14.90;61.60
70107;DHT22;57473;37.508;15.080;2023-04-01T02:45:36;14.90;61.60
70107;DHT22;57473;37.508;15.080;2023-04-01T02:48:03;14.90;61.40
70107;DHT22;57473;37.508;15.080;2023-04-01T02:50:31;14.90;61.40
70107;DHT22;57473;37.508;15.080;2023-04-01T02:52:58;14.90;61.40
70107;DHT22;57473;37.508;15.080;2023-04-01T02:55:26;14.80;61.20
70107;DHT22;57473;37.508;15.080;2023-04-01T02:57:53;14.80;61.00
70107;DHT22;57473;37.508;15.080;2023-04-01T03:00:20;14.80;60.70
70107;DHT22;57473;37.508;15.080;2023-04-01T03:02:47;14.90;60.40
70107;DHT22;57473;37.508;15.080;2023-04-01T03:05:15;15.00;59.90
70107;DHT22;57473;37.508;15.080;2023-04-01T03:07:42;15.00;59.60
70107;DHT22;57473;37.508;15.080;2023-04-01T03:10:10;15.10;59.50
70107;DHT22;57473;37.508;15.080;2023-04-01T03:12:38;15.10;59.50
70107;DHT22;57473;37.508;15.080;2023-04-01T03:15:06;15.20;59.60
70107;DHT22;57473;37.508;15.080;2023-04-01T03:17:39;15.20;59.60
70107;DHT22;57473;37.508;15.080;2023-04-01T03:20:08;15.20;59.80
70107;DHT22;57473;37.508;15.080;2023-04-01T03:22:36;15.30;59.70
70107;DHT22;57473;37.508;15.080;2023-04-01T03:25:04;15.30;59.50
70107;DHT22;57473;37.508;15.080;2023-04-01T03:27:32;15.30;59.50
70107;DHT22;57473;37.508;15.080;2023-04-01T03:30:00;15.30;59.40
70107;DHT22;57473;37.508;15.080;2023-04-01T03:32:28;15.40;59.00
70107;DHT22;57473;37.508;15.080;2023-04-01T03:34:55;15.40;58.70
70107;DHT22;57473;37.508;15.080;2023-04-01T03:37:23;15.50;58.20
70107;DHT22;57473;37.508;15.080;2023-04-01T03:39:51;15.50;57.90
70107;DHT22;57473;37.508;15.080;2023-04-01T03:42:18;15.60;57.60
70107;DHT22;57473;37.508;15.080;2023-04-01T03:44:45;15.60;57.50
70107;DHT22;57473;37.508;15.080;2023-04-01T03:47:13;15.60;57.40
70107;DHT22;57473;37.508;15.080;2023-04-01T03:49:40;15.60;57.20
70107;DHT22;57473;37.508;15.080;2023-04-01T03:52:11;15.70;57.10
70107;DHT22;57473;37.508;15.080;2023-04-01T03:54:39;15.70;56.90
70107;DHT22;57473;37.508;15.080;2023-04-01T03:57:06;15.70;56.90
70107;DHT22;57473;37.508;15.080;2023-04-01T03:59:34;15.70;57.10
70107;DHT22;57473;37.508;15.080;2023-04-01T04:02:02;15.60;57.20
70107;DHT22;57473;37.508;15.080;2023-04-01T04:04:29;15.60;57.40
70107;DHT22;57473;37.508;15.080;2023-04-01T04:06:57;15.60;57.60
70107;DHT22;57473;37.508;15.080;2023-04-01T04:09:25;15.60;57.80
70107;DHT22;57473;37.508;15.080;2023-04-01T04:11:53;15.50;57.90
70107;DHT22;57473;37.508;15.080;2023-04-01T04:14:20;15.40;58.00
70107;DHT22;57473;37.508;15.080;2023-04-01T04:16:48;15.40;58.10
70107;DHT22;57473;37.508;15.080;2023-04-01T04:19:15;15.40;58.10
70107;DHT22;57473;37.508;15.080;2023-04-01T04:21:43;15.50;58.20
70107;DHT22;57473;37.508;15.080;2023-04-01T04:24:11;15.50;57.90
70107;DHT22;57473;37.508;15.080;2023-04-01T04:27:02;15.50;57.90
70107;DHT22;57473;37.508;15.080;2023-04-01T04:29:29;15.40;57.80
70107;DHT22;57473;37.508;15.080;2023-04-01T04:31:57;15.40;57.70
70107;DHT22;57473;37.508;15.080;2023-04-01T04:34:24;15.30;57.70
70107;DHT22;57473;37.508;15.080;2023-04-01T04:36:52;15.30;58.00
70107;DHT22;57473;37.508;15.080;2023-04-01T04:39:24;15.20;58.20
70107;DHT22;57473;37.508;15.080;2023-04-01T04:41:52;15.20;58.30
70107;DHT22;57473;37.508;15.080;2023-04-01T04:44:19;15.10;58.40
70107;DHT22;57473;37.508;15.080;2023-04-01T04:46:47;15.10;58.50
70107;DHT22;57473;37.508;15.080;2023-04-01T04:49:15;15.00;58.60
70107;DHT22;57473;37.508;15.080;2023-04-01T04:51:42;15.00;58.70
70107;DHT22;57473;37.508;15.080;2023-04-01T04:54:12;15.10;58.50
70107;DHT22;57473;37.508;15.080;2023-04-01T04:56:50;15.10;58.30
70107;DHT22;57473;37.508;15.080;2023-04-01T04:59:18;15.10;58.30
70107;DHT22;57473;37.508;15.080;2023-04-01T05:02:17;15.20;58.00
70107;DHT22;57473;37.508;15.080;2023-04-01T05:04:46;15.30;57.50
70107;DHT22;57473;37.508;15.080;2023-04-01T05:07:14;15.40;57.10
70107;DHT22;57473;37.508;15.080;2023-04-01T05:09:41;15.50;56.80
70107;DHT22;57473;37.508;15.080;2023-04-01T05:12:08;15.60;56.60
70107;DHT22;57473;37.508;15.080;2023-04-01T05:14:56;15.70;56.50
70107;DHT22;57473;37.508;15.080;2023-04-01T05:17:23;15.80;56.20
70107;DHT22;57473;37.508;15.080;2023-04-01T05:19:51;15.80;56.20
70107;DHT22;57473;37.508;15.080;2023-04-01T05:22:19;15.90;56.00
70107;DHT22;57473;37.508;15.080;2023-04-01T05:24:47;15.90;55.80
70107;DHT22;57473;37.508;15.080;2023-04-01T05:27:15;15.90;55.90
70107;DHT22;57473;37.508;15.080;2023-04-01T05:29:42;15.90;56.00
70107;DHT22;57473;37.508;15.080;2023-04-01T05:32:26;15.90;56.00
70107;DHT22;57473;37.508;15.080;2023-04-01T05:34:54;15.90;56.20
70107;DHT22;57473;37.508;15.080;2023-04-01T05:37:21;15.90;56.50
70107;DHT22;57473;37.508;15.080;2023-04-01T05:39:49;15.90;56.80
70107;DHT22;57473;37.508;15.080;2023-04-01T05:42:17;15.90;56.80
70107;DHT22;57473;37.508;15.080;2023-04-01T05:44:44;15.90;56.80
70107;DHT22;57473;37.508;15.080;2023-04-01T05:47:31;16.00;56.50
70107;DHT22;57473;37.508;15.080;2023-04-01T05:49:58;16.10;56.30
70107;DHT22;57473;37.508;15.080;2023-04-01T05:52:25;16.10;56.50
70107;DHT22;57473;37.508;15.080;2023-04-01T05:54:53;16.10;56.60
70107;DHT22;57473;37.508;15.080;2023-04-01T05:57:20;16.20;56.60
70107;DHT22;57473;37.508;15.080;2023-04-01T05:59:47;16.20;56.70
70107;DHT22;57473;37.508;15.080;2023-04-01T06:02:17;16.20;56.50
70107;DHT22;57473;37.508;15.080;2023-04-01T06:04:45;16.40;55.80
70107;DHT22;57473;37.508;15.080;2023-04-01T06:07:15;16.60;55.30
70107;DHT22;57473;37.508;15.080;2023-04-01T06:09:44;16.80;55.00
70107;DHT22;57473;37.508;15.080;2023-04-01T06:17:42;17.00;54.80
70107;DHT22;57473;37.508;15.080;2023-04-01T06:43:21;17.70;53.80
70107;DHT22;57473;37.508;15.080;2023-04-01T06:58:22;17.90;54.70
70107;DHT22;57473;37.508;15.080;2023-04-01T07:00:54;18.00;54.80
70107;DHT22;57473;37.508;15.080;2023-04-01T07:03:32;18.00;54.90
70107;DHT22;57473;37.508;15.080;2023-04-01T07:06:14;18.10;54.70
70107;DHT22;57473;37.508;15.080;2023-04-01T07:08:53;18.10;54.70
70107;DHT22;57473;37.508;15.080;2023-04-01T07:11:27;18.10;54.90
70107;DHT22;57473;37.508;15.080;2023-04-01T07:14:36;18.10;55.10
70107;DHT22;57473;37.508;15.080;2023-04-01T07:17:20;18.20;55.00
70107;DHT22;57473;37.508;15.080;2023-04-01T07:19:59;18.20;55.20
70107;DHT22;57473;37.508;15.080;2023-04-01T07:22:33;18.30;55.50
70107;DHT22;57473;37.508;15.080;2023-04-01T07:25:20;18.40;55.00
70107;DHT22;57473;37.508;15.080;2023-04-01T07:28:05;18.50;54.90
70107;DHT22;57473;37.508;15.080;2023-04-01T07:33:27;18.50;54.90
70107;DHT22;57473;37.508;15.080;2023-04-01T07:39:09;18.50;54.90
70107;DHT22;57473;37.508;15.080;2023-04-01T07:53:42;19.20;53.40
70107;DHT22;57473;37.508;15.080;2023-04-01T07:56:27;19.40;52.90
70107;DHT22;57473;37.508;15.080;2023-04-01T08:07:25;20.00;51.20
70107;DHT22;57473;37.508;15.080;2023-04-01T08:10:21;20.10;51.20
70107;DHT22;57473;37.508;15.080;2023-04-01T08:16:43;20.30;50.80
70107;DHT22;57473;37.508;15.080;2023-04-01T08:22:38;20.60;48.30
70107;DHT22;57473;37.508;15.080;2023-04-01T08:25:26;20.60;47.80
70107;DHT22;57473;37.508;15.080;2023-04-01T08:30:43;20.70;47.50
70107;DHT22;57473;37.508;15.080;2023-04-01T08:36:07;21.00;46.80
70107;DHT22;57473;37.508;15.080;2023-04-01T08:41:49;21.20;46.20
70107;DHT22;57473;37.508;15.080;2023-04-01T08:45:10;21.40;46.20
70107;DHT22;57473;37.508;15.080;2023-04-01T08:54:12;22.50;44.30
70107;DHT22;57473;37.508;15.080;2023-04-01T09:00:41;23.10;43.00
70107;DHT22;57473;37.508;15.080;2023-04-01T09:03:37;23.10;42.10
70107;DHT22;57473;37.508;15.080;2023-04-01T09:26:59;23.20;41.90
70107;DHT22;57473;37.508;15.080;2023-04-01T09:46:37;23.60;41.80
70107;DHT22;57473;37.508;15.080;2023-04-01T09:52:17;24.00;39.50
70107;DHT22;57473;37.508;15.080;2023-04-01T09:55:03;24.30;38.70
70107;DHT22;57473;37.508;15.080;2023-04-01T10:01:51;24.70;37.60
70107;DHT22;57473;37.508;15.080;2023-04-01T10:26:45;26.40;32.70
70107;DHT22;57473;37.508;15.080;2023-04-01T10:36:18;27.00;32.80
70107;DHT22;57473;37.508;15.080;2023-04-01T10:48:07;27.00;28.00
70107;DHT22;57473;37.508;15.080;2023-04-01T11:09:26;27.20;28.00
70107;DHT22;57473;37.508;15.080;2023-04-01T11:12:09;27.40;27.30
70107;DHT22;57473;37.508;15.080;2023-04-01T11:27:37;27.40;35.20
70107;DHT22;57473;37.508;15.080;2023-04-01T11:30:19;27.50;34.90
70107;DHT22;57473;37.508;15.080;2023-04-01T11:36:00;28.00;34.10
70107;DHT22;57473;37.508;15.080;2023-04-01T11:39:43;27.90;33.70
70107;DHT22;57473;37.508;15.080;2023-04-01T11:42:11;27.80;33.80
70107;DHT22;57473;37.508;15.080;2023-04-01T11:45:25;28.00;33.50
70107;DHT22;57473;37.508;15.080;2023-04-01T11:48:23;28.20;33.10
70107;DHT22;57473;37.508;15.080;2023-04-01T11:56:44;28.50;33.10
70107;DHT22;57473;37.508;15.080;2023-04-01T12:05:24;28.40;34.40
70107;DHT22;57473;37.508;15.080;2023-04-01T12:08:21;28.20;34.60
70107;DHT22;57473;37.508;15.080;2023-04-01T12:11:21;28.00;34.90
70107;DHT22;57473;37.508;15.080;2023-04-01T12:28:01;27.60;35.80
70107;DHT22;57473;37.508;15.080;2023-04-01T12:30:22;27.40;35.90
70107;DHT22;57473;37.508;15.080;2023-04-01T12:38:41;26.30;38.10
70107;DHT22;57473;37.508;15.080;2023-04-01T12:44:43;26.00;38.70
70107;DHT22;57473;37.508;15.080;2023-04-01T12:50:19;25.90;39.00
70107;DHT22;57473;37.508;15.080;2023-04-01T12:53:06;25.90;39.10
70107;DHT22;57473;37.508;15.080;2023-04-01T12:55:40;25.90;39.10
70107;DHT22;57473;37.508;15.080;2023-04-01T13:21:39;26.70;37.20
70107;DHT22;57473;37.508;15.080;2023-04-01T13:24:03;26.70;36.90
70107;DHT22;57473;37.508;15.080;2023-04-01T13:34:39;27.80;37.00
70107;DHT22;57473;37.508;15.080;2023-04-01T13:48:29;26.90;38.60
70107;DHT22;57473;37.508;15.080;2023-04-01T13:51:12;27.00;38.10
70107;DHT22;57473;37.508;15.080;2023-04-01T14:02:23;26.30;39.60
70107;DHT22;57473;37.508;15.080;2023-04-01T14:13:56;25.60;42.90
70107;DHT22;57473;37.508;15.080;2023-04-01T14:16:32;25.10;43.30
70107;DHT22;57473;37.508;15.080;2023-04-01T14:22:04;23.40;47.80
70107;DHT22;57473;37.508;15.080;2023-04-01T14:33:43;21.90;50.80
70107;DHT22;57473;37.508;15.080;2023-04-01T14:39:29;21.90;50.70
70107;DHT22;57473;37.508;15.080;2023-04-01T14:50:46;21.50;50.70
70107;DHT22;57473;37.508;15.080;2023-04-01T14:53:27;21.60;50.10
70107;DHT22;57473;37.508;15.080;2023-04-01T14:56:00;21.40;49.80
70107;DHT22;57473;37.508;15.080;2023-04-01T14:58:45;21.30;50.00
70107;DHT22;57473;37.508;15.080;2023-04-01T15:35:21;21.10;49.80
70107;DHT22;57473;37.508;15.080;2023-04-01T15:38:41;21.00;50.50
70107;DHT22;57473;37.508;15.080;2023-04-01T15:42:04;20.90;51.10
70107;DHT22;57473;37.508;15.080;2023-04-01T15:43:58;20.80;51.50
70107;DHT22;57473;37.508;15.080;2023-04-01T15:46:47;20.70;51.90
70107;DHT22;57473;37.508;15.080;2023-04-01T15:49:37;20.60;52.20
70107;DHT22;57473;37.508;15.080;2023-04-01T16:12:53;20.70;52.60
70107;DHT22;57473;37.508;15.080;2023-04-01T16:15:37;20.50;53.30
70107;DHT22;57473;37.508;15.080;2023-04-01T16:21:07;20.30;53.90
70107;DHT22;57473;37.508;15.080;2023-04-01T16:23:58;20.30;53.80
70107;DHT22;57473;37.508;15.080;2023-04-01T16:26:39;20.30;53.90
70107;DHT22;57473;37.508;15.080;2023-04-01T16:29:43;20.20;54.60
70107;DHT22;57473;37.508;15.080;2023-04-01T16:40:53;19.70;56.90
70107;DHT22;57473;37.508;15.080;2023-04-01T16:43:52;19.70;57.10
70107;DHT22;57473;37.508;15.080;2023-04-01T16:46:43;19.80;56.30
70107;DHT22;57473;37.508;15.080;2023-04-01T16:54:31;19.60;53.60
70107;DHT22;57473;37.508;15.080;2023-04-01T17:00:15;19.50;54.30
70107;DHT22;57473;37.508;15.080;2023-04-01T17:02:52;19.50;54.70
70107;DHT22;57473;37.508;15.080;2023-04-01T17:05:54;19.40;54.70
70107;DHT22;57473;37.508;15.080;2023-04-01T17:08:49;19.40;54.80
70107;DHT22;57473;37.508;15.080;2023-04-01T17:22:50;19.10;57.40
70107;DHT22;57473;37.508;15.080;2023-04-01T17:42:42;18.60;59.20
70107;DHT22;57473;37.508;15.080;2023-04-01T17:45:32;18.60;59.20
70107;DHT22;57473;37.508;15.080;2023-04-01T17:58:53;18.60;60.40
70107;DHT22;57473;37.508;15.080;2023-04-01T18:07:33;18.30;65.00
70107;DHT22;57473;37.508;15.080;2023-04-01T18:16:33;17.90;68.60
70107;DHT22;57473;37.508;15.080;2023-04-01T18:21:54;17.70;69.70
70107;DHT22;57473;37.508;15.080;2023-04-01T18:24:40;17.60;70.70
70107;DHT22;57473;37.508;15.080;2023-04-01T18:27:33;17.60;71.10
70107;DHT22;57473;37.508;15.080;2023-04-01T18:30:20;17.50;72.30
70107;DHT22;57473;37.508;15.080;2023-04-01T18:36:15;17.50;73.10
70107;DHT22;57473;37.508;15.080;2023-04-01T18:39:00;17.50;73.10
70107;DHT22;57473;37.508;15.080;2023-04-01T18:41:50;17.40;73.50
70107;DHT22;57473;37.508;15.080;2023-04-01T18:44:38;17.40;73.90
70107;DHT22;57473;37.508;15.080;2023-04-01T18:57:50;17.20;75.20
70107;DHT22;57473;37.508;15.080;2023-04-01T19:00:22;17.20;75.20
70107;DHT22;57473;37.508;15.080;2023-04-01T19:03:12;17.20;75.10
70107;DHT22;57473;37.508;15.080;2023-04-01T19:05:46;17.20;74.50
70107;DHT22;57473;37.508;15.080;2023-04-01T19:19:18;17.20;74.20
70107;DHT22;57473;37.508;15.080;2023-04-01T19:21:57;17.10;74.20
70107;DHT22;57473;37.508;15.080;2023-04-01T19:38:39;17.30;71.90
70107;DHT22;57473;37.508;15.080;2023-04-01T19:44:31;17.30;71.60
70107;DHT22;57473;37.508;15.080;2023-04-01T19:47:19;17.30;71.20
70107;DHT22;57473;37.508;15.080;2023-04-01T19:52:59;17.40;70.40
70107;DHT22;57473;37.508;15.080;2023-04-01T19:56:02;17.40;70.10
70107;DHT22;57473;37.508;15.080;2023-04-01T19:58:39;17.40;69.70
70107;DHT22;57473;37.508;15.080;2023-04-01T20:01:19;17.40;69.10
70107;DHT22;57473;37.508;15.080;2023-04-01T20:04:03;17.40;68.50
70107;DHT22;57473;37.508;15.080;2023-04-01T20:07:00;17.40;68.40
70107;DHT22;57473;37.508;15.080;2023-04-01T20:09:51;17.40;68.30
70107;DHT22;57473;37.508;15.080;2023-04-01T20:14:58;17.40;68.00
70107;DHT22;57473;37.508;15.080;2023-04-01T20:17:43;17.40;67.60
70107;DHT22;57473;37.508;15.080;2023-04-01T20:25:45;17.40;67.00
70107;DHT22;57473;37.508;15.080;2023-04-01T20:28:30;17.40;66.90
70107;DHT22;57473;37.508;15.080;2023-04-01T20:34:18;17.40;67.00
70107;DHT22;57473;37.508;15.080;2023-04-01T20:37:15;17.40;67.30
70107;DHT22;57473;37.508;15.080;2023-04-01T20:51:22;17.40;66.20
70107;DHT22;57473;37.508;15.080;2023-04-01T21:00:11;17.40;65.80
70107;DHT22;57473;37.508;15.080;2023-04-01T21:11:22;17.40;66.00
70107;DHT22;57473;37.508;15.080;2023-04-01T21:17:02;17.40;65.20
70107;DHT22;57473;37.508;15.080;2023-04-01T21:25:39;17.60;65.20
70107;DHT22;57473;37.508;15.080;2023-04-01T21:28:34;17.60;65.10
70107;DHT22;57473;37.508;15.080;2023-04-01T21:34:25;17.60;65.10
70107;DHT22;57473;37.508;15.080;2023-04-01T21:42:45;17.60;66.00
70107;DHT22;57473;37.508;15.080;2023-04-01T21:45:27;17.60;65.90
70107;DHT22;57473;37.508;15.080;2023-04-01T21:56:55;17.50;66.80
70107;DHT22;57473;37.508;15.080;2023-04-01T22:06:16;17.40;66.80
70107;DHT22;57473;37.508;15.080;2023-04-01T22:09:03;17.40;66.60
70107;DHT22;57473;37.508;15.080;2023-04-01T22:11:50;17.50;64.70
70107;DHT22;57473;37.508;15.080;2023-04-01T22:25:16;17.70;43.90
70107;DHT22;57473;37.508;15.080;2023-04-01T22:27:54;17.80;42.40
70107;DHT22;57473;37.508;15.080;2023-04-01T22:35:45;18.00;41.00
70107;DHT22;57473;37.508;15.080;2023-04-01T22:41:44;18.10;39.40
70107;DHT22;57473;37.508;15.080;2023-04-01T22:44:23;18.00;39.10
70107;DHT22;57473;37.508;15.080;2023-04-01T22:52:33;18.00;38.80
70107;DHT22;57473;37.508;15.080;2023-04-01T23:00:40;18.00;39.50
70107;DHT22;57473;37.508;15.080;2023-04-01T23:05:40;17.90;39.60
70107;DHT22;57473;37.508;15.080;2023-04-01T23:10:54;18.00;39.30
70107;DHT22;57473;37.508;15.080;2023-04-01T23:13:37;18.00;51.80
70107;DHT22;57473;37.508;15.080;2023-04-01T23:16:05;17.90;59.70
70107;DHT22;57473;37.508;15.080;2023-04-01T23:18:35;17.70;61.40
70107;DHT22;57473;37.508;15.080;2023-04-01T23:21:21;17.60;63.40
70107;DHT22;57473;37.508;15.080;2023-04-01T23:29:14;17.40;64.70
70107;DHT22;57473;37.508;15.080;2023-04-01T23:31:46;17.40;64.80
70107;DHT22;57473;37.508;15.080;2023-04-01T23:36:47;17.40;47.50
70107;DHT22;57473;37.508;15.080;2023-04-01T23:39:41;17.40;45.20
70107;DHT22;57473;37.508;15.080;2023-04-01T23:42:31;17.40;44.40
70107;DHT22;57473;37.508;15.080;2023-04-01T23:45:13;17.40;44.00
70107;DHT22;57473;37.508;15.080;2023-04-01T23:47:45;17.40;43.80
70107;DHT22;57473;37.508;15.080;2023-04-01T23:50:17;17.40;44.00
70107;DHT22;57473;37.508;15.080;2023-04-01T23:52:54;17.40;43.50
70107;DHT22;57473;37.508;15.080;2023-04-01T23:55:33;17.40;49.30
70107;DHT22;57473;37.508;15.080;2023-04-01T23:58:24;17.30;59.10
